Time;durP1;ratioP1;P1;durP2;ratioP2;P2;SDS_P1;SDS_P2;PMS_P1;PMS_P2;Temp;Humidity;BMP_temperature;BMP_pressure;BME280_temperature;BME280_humidity;BME280_pressure;Samples;Min_cycle;Max_cycle;Signal;HPM_P1;HPM_P2
2024/01/12 00:04:28;;;;;;;19.13;12.65;;;;;;;;;;10327651;28;20034;-64
2024/01/12 00:09:29;;;;;;;18.17;12.40;;;;;;;;;;10330896;28;20030;-63
2024/01/12 00:14:29;;;;;;;28.92;13.23;;;;;;;;;;10330982;28;20026;-63
2024/01/12 00:19:30;;;;;;;24.65;13.32;;;;;;;;;;10329927;28;20540;-65
2024/01/12 00:24:30;;;;;;;17.17;11.63;;;;;;;;;;10329468;28;20573;-64
2024/01/12 00:29:31;;;;;;;23.98;11.95;;;;;;;;;;10319529;28;20038;-64
2024/01/12 00:34:32;;;;;;;18.58;12.07;;;;;;;;;;10328926;28;20061;-64
2024/01/12 00:39:33;;;;;;;22.10;12.32;;;;;;;;;;10317756;28;20043;-64
2024/01/12 00:44:33;;;;;;;20.10;12.10;;;;;;;;;;10327840;28;20030;-64
2024/01/12 00:49:34;;;;;;;16.65;11.55;;;;;;;;;;10327771;28;20085;-66
2024/01/12 00:54:34;;;;;;;17.52;12.23;;;;;;;;;;10327153;28;20034;-64
2024/01/12 00:59:35;;;;;;;18.38;12.38;;;;;;;;;;10327142;28;20026;-64
2024/01/12 01:04:36;;;;;;;15.93;10.63;;;;;;;;;;10325871;28;20161;-64
2024/01/12 01:09:36;;;;;;;17.85;11.18;;;;;;;;;;10315946;28;20030;-68
2024/01/12 01:14:37;;;;;;;15.85;10.63;;;;;;;;;;10327981;28;20474;-64
2024/01/12 01:19:38;;;;;;;15.23;10.73;;;;;;;;;;10326338;28;20593;-67
2024/01/12 01:24:38;;;;;;;18.85;11.57;;;;;;;;;;10328111;28;20027;-65
2024/01/12 01:29:39;;;;;;;16.42;11.18;;;;;;;;;;10326047;28;20363;-65
2024/01/12 01:34:39;;;;;;;18.88;10.43;;;;;;;;;;10326558;28;20030;-65
2024/01/12 01:39:40;;;;;;;17.85;11.00;;;;;;;;;;10325990;28;20065;-66
2024/01/12 01:44:40;;;;;;;15.70;10.63;;;;;;;;;;10319720;28;20038;-67
2024/01/12 01:49:41;;;;;;;17.83;10.18;;;;;;;;;;10317850;28;20030;-66
2024/01/12 01:54:42;;;;;;;15.73;10.10;;;;;;;;;;10322541;28;20030;-66
2024/01/12 01:59:43;;;;;;;18.33;11.18;;;;;;;;;;10325817;28;20034;-66
2024/01/12 02:04:43;;;;;;;16.92;11.07;;;;;;;;;;10325259;28;20038;-68
2024/01/12 02:09:44;;;;;;;15.23;10.55;;;;;;;;;;10325244;28;20030;-66
2024/01/12 02:14:45;;;;;;;15.13;10.32;;;;;;;;;;10324115;28;20030;-65
2024/01/12 02:19:46;;;;;;;12.82;10.23;;;;;;;;;;10324685;28;20082;-65
2024/01/12 02:24:46;;;;;;;16.30;9.85;;;;;;;;;;10331877;28;20041;-67
2024/01/12 02:29:50;;;;;;;13.65;9.80;;;;;;;;;;10324260;28;20030;-65
2024/01/12 02:34:51;;;;;;;16.75;10.10;;;;;;;;;;10315912;28;20095;-63
2024/01/12 02:39:51;;;;;;;15.43;9.85;;;;;;;;;;10320626;28;20066;-63
2024/01/12 02:44:52;;;;;;;14.77;9.90;;;;;;;;;;10323081;28;20022;-67
2024/01/12 02:49:53;;;;;;;13.82;9.98;;;;;;;;;;10324854;28;20033;-68
2024/01/12 02:54:53;;;;;;;14.00;9.52;;;;;;;;;;10323801;28;20030;-67
2024/01/12 02:59:54;;;;;;;14.40;9.70;;;;;;;;;;10310091;28;20042;-67
2024/01/12 03:04:55;;;;;;;16.73;9.60;;;;;;;;;;10317889;28;20030;-64
2024/01/12 03:09:55;;;;;;;14.52;9.75;;;;;;;;;;10324068;28;20084;-66
2024/01/12 03:14:56;;;;;;;12.43;8.75;;;;;;;;;;10319990;28;20035;-66
2024/01/12 03:19:56;;;;;;;13.23;9.05;;;;;;;;;;10330093;28;20053;-69
2024/01/12 03:24:57;;;;;;;16.17;9.85;;;;;;;;;;10335774;28;20022;-70
2024/01/12 03:29:58;;;;;;;12.77;8.90;;;;;;;;;;10336942;28;20037;-69
2024/01/12 03:34:59;;;;;;;14.13;9.13;;;;;;;;;;10329284;28;20027;-70
2024/01/12 03:39:59;;;;;;;11.90;8.80;;;;;;;;;;10336420;28;20105;-69
2024/01/12 03:45:00;;;;;;;14.43;9.40;;;;;;;;;;10334325;28;20272;-65
2024/01/12 03:50:00;;;;;;;12.90;8.93;;;;;;;;;;10334647;28;20026;-65
2024/01/12 03:55:01;;;;;;;11.73;8.77;;;;;;;;;;10336254;28;20030;-69
2024/01/12 04:00:02;;;;;;;11.48;8.85;;;;;;;;;;10329642;28;20045;-65
2024/01/12 04:05:04;;;;;;;10.73;7.93;;;;;;;;;;10335782;28;20394;-66
2024/01/12 04:10:05;;;;;;;14.23;9.30;;;;;;;;;;10336530;28;20045;-67
2024/01/12 04:15:09;;;;;;;10.13;7.88;;;;;;;;;;10335554;28;20037;-67
2024/01/12 04:20:11;;;;;;;12.27;8.48;;;;;;;;;;10334173;28;20438;-66
2024/01/12 04:25:12;;;;;;;11.95;8.57;;;;;;;;;;10333370;28;20035;-67
2024/01/12 04:30:13;;;;;;;10.48;8.00;;;;;;;;;;10332375;28;20035;-63
2024/01/12 04:35:13;;;;;;;14.75;9.05;;;;;;;;;;10328844;28;20104;-64
2024/01/12 04:40:14;;;;;;;11.32;8.23;;;;;;;;;;10329835;28;20153;-64
2024/01/12 04:45:14;;;;;;;12.63;8.13;;;;;;;;;;10323759;28;20106;-64
2024/01/12 04:50:15;;;;;;;11.27;8.15;;;;;;;;;;10329714;28;20030;-64
2024/01/12 04:55:16;;;;;;;9.82;7.75;;;;;;;;;;10325073;28;20034;-63
2024/01/12 05:00:18;;;;;;;10.85;7.50;;;;;;;;;;10327529;28;20109;-63
2024/01/12 05:05:19;;;;;;;10.75;8.20;;;;;;;;;;10325475;28;20108;-63
2024/01/12 05:10:19;;;;;;;9.55;7.70;;;;;;;;;;10326779;28;20030;-63
2024/01/12 05:15:20;;;;;;;11.75;8.20;;;;;;;;;;10317294;28;20489;-66
2024/01/12 05:20:21;;;;;;;13.45;8.35;;;;;;;;;;10327850;28;20474;-67
2024/01/12 05:25:22;;;;;;;11.48;7.65;;;;;;;;;;10327374;28;20481;-67
2024/01/12 05:30:22;;;;;;;11.45;8.27;;;;;;;;;;10327916;28;20023;-63
2024/01/12 05:35:23;;;;;;;9.57;7.22;;;;;;;;;;10321004;28;20189;-68
2024/01/12 05:40:23;;;;;;;11.05;7.78;;;;;;;;;;10318531;28;20042;-68
2024/01/12 05:45:24;;;;;;;10.30;7.32;;;;;;;;;;10324223;28;20034;-64
2024/01/12 05:50:24;;;;;;;10.45;6.82;;;;;;;;;;10325834;28;20041;-70
2024/01/12 05:55:25;;;;;;;9.15;7.22;;;;;;;;;;10325896;28;20023;-66
2024/01/12 06:00:26;;;;;;;10.65;6.82;;;;;;;;;;10326396;28;20033;-68
2024/01/12 06:05:27;;;;;;;9.60;6.55;;;;;;;;;;10326078;28;20023;-66
2024/01/12 06:10:27;;;;;;;9.65;7.60;;;;;;;;;;10322478;28;20031;-69
2024/01/12 06:15:28;;;;;;;10.68;7.57;;;;;;;;;;10324876;28;20034;-69
2024/01/12 06:20:28;;;;;;;10.05;7.22;;;;;;;;;;10325489;28;20038;-63
2024/01/12 06:25:29;;;;;;;10.00;7.10;;;;;;;;;;10322920;28;20096;-63
2024/01/12 06:30:31;;;;;;;8.75;6.75;;;;;;;;;;10325423;28;20041;-63
2024/01/12 06:35:32;;;;;;;10.10;7.13;;;;;;;;;;10324299;28;20565;-64
2024/01/12 06:40:32;;;;;;;8.20;6.28;;;;;;;;;;10324635;28;20092;-63
2024/01/12 06:45:33;;;;;;;9.68;6.40;;;;;;;;;;10324893;28;20498;-64
2024/01/12 06:50:33;;;;;;;10.68;7.20;;;;;;;;;;10303386;28;20606;-65
2024/01/12 06:55:36;;;;;;;13.27;8.25;;;;;;;;;;10315080;28;20493;-65
2024/01/12 07:00:36;;;;;;;15.10;8.57;;;;;;;;;;10314905;28;20386;-65
2024/01/12 07:05:37;;;;;;;24.25;9.23;;;;;;;;;;10316436;28;20027;-65
2024/01/12 07:10:38;;;;;;;19.17;9.73;;;;;;;;;;10296703;28;20058;-64
2024/01/12 07:15:39;;;;;;;35.28;8.65;;;;;;;;;;10227238;28;20026;-62
2024/01/12 07:20:39;;;;;;;21.35;8.70;;;;;;;;;;10222662;28;20077;-64
2024/01/12 07:25:40;;;;;;;30.55;9.80;;;;;;;;;;10238314;28;20041;-65
2024/01/12 07:30:40;;;;;;;12.63;7.97;;;;;;;;;;10233065;28;20033;-63
2024/01/12 07:35:41;;;;;;;19.45;8.20;;;;;;;;;;10229388;28;20085;-64
2024/01/12 07:40:42;;;;;;;15.07;8.02;;;;;;;;;;10227196;28;20493;-63
2024/01/12 07:45:42;;;;;;;12.70;7.72;;;;;;;;;;10234085;28;20390;-63
2024/01/12 07:50:44;;;;;;;18.23;8.77;;;;;;;;;;10230116;28;20034;-63
2024/01/12 07:55:44;;;;;;;12.38;8.18;;;;;;;;;;10273873;28;20030;-63
2024/01/12 08:00:45;;;;;;;16.00;7.90;;;;;;;;;;10225748;28;20069;-63
2024/01/12 08:05:45;;;;;;;17.38;8.07;;;;;;;;;;10233027;28;20019;-63
2024/01/12 08:10:46;;;;;;;11.15;7.07;;;;;;;;;;10238985;28;20242;-63
2024/01/12 08:15:47;;;;;;;10.80;7.38;;;;;;;;;;10310113;28;20480;-63
2024/01/12 08:20:48;;;;;;;11.02;7.50;;;;;;;;;;10333262;28;20098;-63
2024/01/12 08:25:48;;;;;;;9.90;7.10;;;;;;;;;;10320925;28;20548;-64
2024/01/12 08:30:49;;;;;;;11.85;6.63;;;;;;;;;;10329798;28;20030;-64
2024/01/12 08:35:49;;;;;;;14.65;7.57;;;;;;;;;;10329521;28;20058;-64
2024/01/12 08:40:50;;;;;;;12.85;7.45;;;;;;;;;;10329782;28;20390;-64
2024/01/12 08:45:50;;;;;;;14.98;8.23;;;;;;;;;;10329510;28;20386;-63
2024/01/12 08:50:51;;;;;;;10.35;7.18;;;;;;;;;;10329021;28;20045;-64
2024/01/12 08:55:52;;;;;;;15.48;8.65;;;;;;;;;;10328762;28;20089;-64
2024/01/12 09:00:53;;;;;;;10.90;7.18;;;;;;;;;;10329544;28;20041;-63
2024/01/12 09:05:54;;;;;;;12.68;7.60;;;;;;;;;;10327662;28;20025;-63
2024/01/12 09:10:55;;;;;;;10.05;7.05;;;;;;;;;;10327722;28;20045;-64
2024/01/12 09:15:55;;;;;;;9.48;7.00;;;;;;;;;;10327369;28;20088;-63
2024/01/12 09:20:56;;;;;;;10.68;7.57;;;;;;;;;;10327704;28;20030;-64
2024/01/12 09:25:56;;;;;;;12.00;7.22;;;;;;;;;;10327543;28;20026;-64
2024/01/12 09:30:57;;;;;;;9.25;6.95;;;;;;;;;;10326005;28;20022;-64
2024/01/12 09:35:58;;;;;;;10.43;6.75;;;;;;;;;;10326439;28;20050;-64
2024/01/12 09:41:02;;;;;;;10.15;7.28;;;;;;;;;;10325747;28;20509;-63
2024/01/12 09:46:07;;;;;;;12.65;6.88;;;;;;;;;;10325083;28;20031;-63
2024/01/12 09:51:08;;;;;;;10.77;6.45;;;;;;;;;;10326629;28;20045;-63
2024/01/12 09:56:09;;;;;;;11.30;6.60;;;;;;;;;;10325067;28;20034;-64
2024/01/12 10:01:10;;;;;;;7.75;6.57;;;;;;;;;;10326681;28;20038;-64
2024/01/12 10:06:11;;;;;;;8.55;6.22;;;;;;;;;;10324518;28;20030;-64
2024/01/12 10:11:11;;;;;;;16.00;6.82;;;;;;;;;;10313811;28;20027;-64
2024/01/12 10:16:13;;;;;;;10.95;6.85;;;;;;;;;;10325873;28;20034;-63
2024/01/12 10:21:14;;;;;;;11.07;7.38;;;;;;;;;;10324495;28;20034;-64
2024/01/12 10:26:17;;;;;;;12.82;6.85;;;;;;;;;;10324883;28;20027;-64
2024/01/12 10:31:18;;;;;;;9.32;6.85;;;;;;;;;;10323845;28;20030;-64
2024/01/12 10:36:21;;;;;;;13.48;6.65;;;;;;;;;;10324777;28;20050;-64
2024/01/12 10:41:24;;;;;;;9.57;6.65;;;;;;;;;;10324169;28;20478;-63
2024/01/12 10:46:43;;;;;;;7.38;5.72;;;;;;;;;;10323763;28;20378;-63
2024/01/12 10:52:21;;;;;;;9.85;6.65;;;;;;;;;;10323435;28;20237;-64
2024/01/12 10:57:22;;;;;;;8.27;5.97;;;;;;;;;;10323628;28;20397;-64
2024/01/12 11:02:24;;;;;;;13.95;6.40;;;;;;;;;;10323384;28;20041;-63
2024/01/12 11:07:24;;;;;;;10.50;6.68;;;;;;;;;;10322870;28;20023;-64
2024/01/12 11:12:46;;;;;;;9.52;6.70;;;;;;;;;;10322255;28;20565;-63
2024/01/12 11:17:46;;;;;;;8.30;6.20;;;;;;;;;;10323629;28;20069;-64
2024/01/12 11:22:49;;;;;;;8.93;6.47;;;;;;;;;;10321979;28;20034;-64
2024/01/12 11:27:52;;;;;;;7.63;6.13;;;;;;;;;;10323688;28;20031;-64
2024/01/12 11:33:06;;;;;;;10.02;5.80;;;;;;;;;;10322964;28;20481;-63
2024/01/12 11:38:09;;;;;;;9.50;6.65;;;;;;;;;;10318233;23;20553;-50
2024/01/12 11:43:18;;;;;;;9.18;6.20;;;;;;;;;;10315790;28;20057;-48
2024/01/12 11:48:19;;;;;;;8.65;6.05;;;;;;;;;;10324415;28;20101;-50
2024/01/12 11:53:19;;;;;;;9.20;6.18;;;;;;;;;;10315033;28;20470;-48
2024/01/12 11:58:21;;;;;;;7.68;5.70;;;;;;;;;;10324241;28;20027;-53
2024/01/12 12:03:24;;;;;;;8.55;6.03;;;;;;;;;;10318687;28;20034;-52
2024/01/12 12:08:27;;;;;;;7.20;5.40;;;;;;;;;;10315083;28;20061;-55
2024/01/12 12:13:28;;;;;;;7.35;5.88;;;;;;;;;;10310302;28;20080;-53
2024/01/12 12:18:32;;;;;;;8.57;5.82;;;;;;;;;;10323502;28;20544;-54
2024/01/12 12:23:33;;;;;;;7.30;5.55;;;;;;;;;;10315204;28;20637;-52
2024/01/12 12:28:34;;;;;;;10.43;5.82;;;;;;;;;;10291071;28;20039;-51
2024/01/12 12:33:34;;;;;;;7.55;5.90;;;;;;;;;;10316249;28;20430;-56
2024/01/12 12:38:39;;;;;;;8.40;5.38;;;;;;;;;;10319125;28;20305;-52
2024/01/12 12:43:40;;;;;;;9.07;5.60;;;;;;;;;;10312180;28;20192;-53
2024/01/12 12:48:41;;;;;;;7.55;5.55;;;;;;;;;;10322497;28;20085;-52
2024/01/12 12:53:42;;;;;;;7.18;5.50;;;;;;;;;;10316922;28;20317;-60
2024/01/12 12:58:43;;;;;;;7.88;5.30;;;;;;;;;;10314298;28;20068;-53
2024/01/12 13:03:43;;;;;;;5.82;4.85;;;;;;;;;;10288814;28;20022;-53
2024/01/12 13:08:44;;;;;;;10.07;5.75;;;;;;;;;;10276917;28;20031;-53
2024/01/12 13:13:45;;;;;;;7.68;4.78;;;;;;;;;;10279844;28;20055;-54
2024/01/12 13:18:45;;;;;;;6.63;5.30;;;;;;;;;;10284192;28;20329;-52
2024/01/12 13:23:46;;;;;;;5.53;4.28;;;;;;;;;;10278531;28;20529;-53
2024/01/12 13:28:46;;;;;;;5.85;4.95;;;;;;;;;;10288325;28;20494;-51
2024/01/12 13:33:48;;;;;;;7.50;5.15;;;;;;;;;;10288185;28;20023;-53
2024/01/12 13:38:53;;;;;;;6.13;5.00;;;;;;;;;;10287905;28;20125;-53
2024/01/12 13:43:53;;;;;;;7.78;5.25;;;;;;;;;;10288049;28;20034;-51
2024/01/12 13:48:54;;;;;;;7.15;4.85;;;;;;;;;;10282248;28;20364;-52
2024/01/12 13:53:56;;;;;;;7.22;5.05;;;;;;;;;;10270080;28;20042;-53
2024/01/12 13:58:57;;;;;;;6.95;5.15;;;;;;;;;;10272885;28;20100;-55
2024/01/12 14:03:58;;;;;;;6.70;4.65;;;;;;;;;;10285412;28;20054;-53
2024/01/12 14:08:59;;;;;;;5.63;4.07;;;;;;;;;;10263141;28;20038;-58
2024/01/12 14:14:01;;;;;;;5.75;4.97;;;;;;;;;;10270979;28;20483;-56
2024/01/12 14:19:01;;;;;;;8.57;4.55;;;;;;;;;;10267754;28;20089;-53
2024/01/12 14:24:02;;;;;;;8.30;4.50;;;;;;;;;;10269901;28;20098;-60
2024/01/12 14:29:03;;;;;;;6.80;4.53;;;;;;;;;;10259438;28;20027;-52
2024/01/12 14:34:03;;;;;;;15.32;5.25;;;;;;;;;;10257113;28;20049;-54
2024/01/12 14:39:04;;;;;;;11.93;4.45;;;;;;;;;;10260153;28;20538;-54
2024/01/12 14:44:04;;;;;;;11.70;4.50;;;;;;;;;;10269036;28;20035;-52
2024/01/12 14:49:06;;;;;;;15.57;4.47;;;;;;;;;;10304844;28;20033;-48
2024/01/12 14:54:07;;;;;;;11.95;5.10;;;;;;;;;;10287614;28;20042;-53
2024/01/12 14:59:07;;;;;;;8.15;4.57;;;;;;;;;;10261902;28;20027;-50
2024/01/12 15:04:08;;;;;;;10.98;4.53;;;;;;;;;;10271424;28;20030;-47
2024/01/12 15:09:09;;;;;;;8.98;4.63;;;;;;;;;;10284585;28;20018;-52
2024/01/12 15:14:10;;;;;;;8.32;4.50;;;;;;;;;;10285679;28;20030;-52
2024/01/12 15:19:11;;;;;;;16.27;4.78;;;;;;;;;;10284424;28;20371;-52
2024/01/12 15:24:12;;;;;;;14.98;5.10;;;;;;;;;;10284279;28;20034;-48
2024/01/12 15:29:15;;;;;;;12.43;4.68;;;;;;;;;;10283617;28;20027;-52
2024/01/12 15:34:16;;;;;;;12.80;4.30;;;;;;;;;;10283659;28;20027;-48
2024/01/12 15:39:16;;;;;;;7.82;4.85;;;;;;;;;;10278917;28;20050;-49
2024/01/12 15:44:17;;;;;;;9.82;4.70;;;;;;;;;;10266887;28;20065;-48
2024/01/12 15:49:18;;;;;;;13.75;5.10;;;;;;;;;;10273299;28;20035;-52
2024/01/12 15:54:18;;;;;;;11.95;4.90;;;;;;;;;;10285845;28;20042;-51
2024/01/12 15:59:19;;;;;;;10.32;5.13;;;;;;;;;;10284394;28;20022;-47
2024/01/12 16:04:19;;;;;;;10.75;4.68;;;;;;;;;;10284797;28;20266;-48
2024/01/12 16:09:20;;;;;;;9.63;4.50;;;;;;;;;;10285171;28;20034;-47
2024/01/12 16:14:21;;;;;;;11.93;4.25;;;;;;;;;;10285961;28;20038;-51
2024/01/12 16:19:21;;;;;;;9.77;4.63;;;;;;;;;;10284706;28;20118;-45
2024/01/12 16:24:22;;;;;;;14.27;4.63;;;;;;;;;;10283155;28;20043;-45
2024/01/12 16:29:23;;;;;;;7.70;4.28;;;;;;;;;;10290367;28;20037;-50
2024/01/12 16:34:23;;;;;;;9.65;4.47;;;;;;;;;;10292060;28;20027;-49
2024/01/12 16:39:24;;;;;;;6.97;4.00;;;;;;;;;;10290494;28;20136;-54
2024/01/12 16:44:27;;;;;;;10.45;4.30;;;;;;;;;;10290886;28;20545;-49
2024/01/12 16:49:27;;;;;;;12.88;4.70;;;;;;;;;;10301725;28;20027;-51
2024/01/12 16:54:28;;;;;;;8.60;4.85;;;;;;;;;;10320609;28;20034;-52
2024/01/12 16:59:29;;;;;;;7.20;4.10;;;;;;;;;;10324671;28;20041;-51
2024/01/12 17:04:34;;;;;;;9.45;4.28;;;;;;;;;;10286646;28;20057;-50
2024/01/12 17:09:35;;;;;;;9.65;4.63;;;;;;;;;;10262525;28;20349;-52
2024/01/12 17:14:37;;;;;;;7.47;4.68;;;;;;;;;;10288606;28;20628;-53
2024/01/12 17:19:38;;;;;;;6.97;4.53;;;;;;;;;;10293023;28;20121;-49
2024/01/12 17:24:39;;;;;;;11.07;4.70;;;;;;;;;;10280162;28;20034;-49
2024/01/12 17:29:40;;;;;;;12.32;4.70;;;;;;;;;;10279045;28;20030;-50
2024/01/12 17:34:41;;;;;;;6.38;3.97;;;;;;;;;;10285165;28;20500;-52
2024/01/12 17:39:42;;;;;;;6.50;4.75;;;;;;;;;;10266385;28;20054;-50
2024/01/12 17:44:43;;;;;;;9.45;5.55;;;;;;;;;;10282720;28;20030;-51
2024/01/12 17:49:44;;;;;;;7.53;4.72;;;;;;;;;;10313118;28;20479;-51
2024/01/12 17:54:44;;;;;;;7.05;4.80;;;;;;;;;;10302949;28;20446;-52
2024/01/12 17:59:45;;;;;;;8.70;5.22;;;;;;;;;;10297621;28;20039;-49
2024/01/12 18:04:48;;;;;;;7.68;5.13;;;;;;;;;;10282089;28;20398;-52
2024/01/12 18:09:48;;;;;;;6.88;4.45;;;;;;;;;;10287340;28;20367;-50
2024/01/12 18:14:50;;;;;;;7.05;4.47;;;;;;;;;;10272618;28;20023;-45
2024/01/12 18:19:50;;;;;;;9.98;4.70;;;;;;;;;;10280620;28;20092;-48
2024/01/12 18:24:51;;;;;;;7.57;4.85;;;;;;;;;;10300326;28;20085;-45
2024/01/12 18:29:53;;;;;;;9.65;5.35;;;;;;;;;;10282059;28;20046;-58
2024/01/12 18:34:54;;;;;;;10.00;5.65;;;;;;;;;;10285008;28;20066;-48
2024/01/12 18:39:55;;;;;;;30.33;6.15;;;;;;;;;;10288746;28;20046;-47
2024/01/12 18:44:55;;;;;;;14.20;5.10;;;;;;;;;;10280559;28;20418;-46
2024/01/12 18:49:58;;;;;;;8.95;4.40;;;;;;;;;;10282820;28;20042;-47
2024/01/12 18:54:59;;;;;;;13.25;4.72;;;;;;;;;;10286926;28;20038;-49
2024/01/12 18:59:59;;;;;;;14.82;4.78;;;;;;;;;;10290663;28;20074;-51
2024/01/12 19:05:00;;;;;;;10.27;5.35;;;;;;;;;;10289984;28;20497;-47
2024/01/12 19:10:01;;;;;;;9.30;5.30;;;;;;;;;;10285412;28;20034;-49
2024/01/12 19:15:01;;;;;;;9.13;4.95;;;;;;;;;;10279509;28;20027;-46
2024/01/12 19:20:03;;;;;;;9.40;4.88;;;;;;;;;;10276014;28;20037;-48
2024/01/12 19:25:07;;;;;;;9.75;5.50;;;;;;;;;;10275394;28;20406;-44
2024/01/12 19:30:09;;;;;;;7.05;4.13;;;;;;;;;;10279382;28;20483;-49
2024/01/12 19:35:09;;;;;;;10.50;4.72;;;;;;;;;;10282074;28;20418;-46
2024/01/12 19:40:13;;;;;;;9.55;4.90;;;;;;;;;;10274797;28;20054;-45
2024/01/12 19:45:13;;;;;;;7.60;5.38;;;;;;;;;;10281497;28;20035;-52
2024/01/12 19:50:16;;;;;;;9.10;5.10;;;;;;;;;;10281270;28;20031;-45
2024/01/12 19:55:17;;;;;;;10.63;5.38;;;;;;;;;;10298559;28;20085;-49
2024/01/12 20:00:18;;;;;;;11.82;4.82;;;;;;;;;;10310177;28;20120;-49
2024/01/12 20:05:19;;;;;;;8.60;5.18;;;;;;;;;;10284864;28;20402;-47
2024/01/12 20:10:19;;;;;;;8.82;5.40;;;;;;;;;;10317541;28;20018;-47
2024/01/12 20:15:20;;;;;;;8.02;5.30;;;;;;;;;;10296768;28;20359;-47
2024/01/12 20:20:20;;;;;;;8.13;5.00;;;;;;;;;;10291329;28;20034;-46
2024/01/12 20:25:21;;;;;;;10.43;5.40;;;;;;;;;;10291926;28;20041;-44
2024/01/12 20:30:21;;;;;;;9.73;5.32;;;;;;;;;;10285332;28;20045;-47
2024/01/12 20:35:22;;;;;;;10.98;5.80;;;;;;;;;;10288748;28;20784;-45
2024/01/12 20:40:23;;;;;;;9.05;4.97;;;;;;;;;;10289037;28;20482;-48
2024/01/12 20:45:24;;;;;;;12.32;5.80;;;;;;;;;;10291319;28;20026;-46
2024/01/12 20:50:25;;;;;;;13.35;5.40;;;;;;;;;;10279597;28;20026;-44
2024/01/12 20:55:25;;;;;;;10.50;5.00;;;;;;;;;;10284428;28;20187;-48
2024/01/12 21:00:26;;;;;;;17.02;6.10;;;;;;;;;;10271180;28;20491;-49
2024/01/12 21:05:27;;;;;;;12.38;5.40;;;;;;;;;;10252499;28;20375;-49
2024/01/12 21:10:27;;;;;;;16.13;5.90;;;;;;;;;;10278130;28;20378;-50
2024/01/12 21:15:30;;;;;;;13.73;5.10;;;;;;;;;;10281315;28;20026;-55
2024/01/12 21:20:31;;;;;;;12.63;5.38;;;;;;;;;;10280614;28;20085;-48
2024/01/12 21:25:31;;;;;;;9.98;5.38;;;;;;;;;;10281559;28;20031;-47
2024/01/12 21:30:32;;;;;;;9.13;4.75;;;;;;;;;;10277595;28;20054;-48
2024/01/12 21:35:32;;;;;;;14.82;5.57;;;;;;;;;;10284938;28;20039;-48
2024/01/12 21:40:33;;;;;;;7.20;4.97;;;;;;;;;;10291135;28;20049;-48
2024/01/12 21:45:34;;;;;;;14.57;5.75;;;;;;;;;;10298510;28;20093;-49
2024/01/12 21:50:34;;;;;;;11.57;5.95;;;;;;;;;;10311981;28;20057;-46
2024/01/12 21:55:35;;;;;;;10.10;5.18;;;;;;;;;;10291902;28;20118;-46
2024/01/12 22:00:36;;;;;;;8.50;5.00;;;;;;;;;;10281928;28;20031;-50
2024/01/12 22:05:36;;;;;;;17.77;5.20;;;;;;;;;;10294863;28;20496;-45
2024/01/12 22:10:37;;;;;;;9.52;5.22;;;;;;;;;;10293903;28;20025;-50
2024/01/12 22:15:37;;;;;;;8.43;4.43;;;;;;;;;;10295557;28;20422;-45
2024/01/12 22:20:38;;;;;;;6.93;4.63;;;;;;;;;;10291478;28;20038;-48
2024/01/12 22:25:40;;;;;;;7.63;4.63;;;;;;;;;;10301949;28;20053;-48
2024/01/12 22:30:41;;;;;;;10.35;5.22;;;;;;;;;;10269425;28;20038;-49
2024/01/12 22:35:41;;;;;;;6.57;4.70;;;;;;;;;;10285380;28;20039;-46
2024/01/12 22:40:42;;;;;;;10.38;5.20;;;;;;;;;;10272783;28;20083;-45
2024/01/12 22:45:43;;;;;;;10.68;6.05;;;;;;;;;;10259469;28;20046;-48
2024/01/12 22:50:44;;;;;;;11.77;5.80;;;;;;;;;;10270457;28;20045;-47
2024/01/12 22:55:44;;;;;;;12.88;5.32;;;;;;;;;;10289395;28;20026;-51
2024/01/12 23:00:45;;;;;;;8.20;4.95;;;;;;;;;;10283763;28;20389;-46
2024/01/12 23:05:45;;;;;;;8.32;4.60;;;;;;;;;;10278552;28;20030;-44
2024/01/12 23:10:46;;;;;;;10.80;5.00;;;;;;;;;;10267784;28;20449;-46
2024/01/12 23:15:47;;;;;;;7.45;5.05;;;;;;;;;;10276070;28;20038;-48
2024/01/12 23:20:47;;;;;;;11.30;4.57;;;;;;;;;;10284298;28;20041;-46
2024/01/12 23:25:48;;;;;;;8.10;4.63;;;;;;;;;;10277390;28;20031;-48
2024/01/12 23:30:49;;;;;;;7.70;4.65;;;;;;;;;;10277082;28;20444;-49
2024/01/12 23:35:50;;;;;;;8.40;4.72;;;;;;;;;;10289239;28;20046;-48
2024/01/12 23:40:51;;;;;;;6.85;4.22;;;;;;;;;;10294373;28;20041;-48
2024/01/12 23:45:53;;;;;;;8.68;4.57;;;;;;;;;;10315266;28;20512;-45
2024/01/12 23:50:53;;;;;;;8.25;4.13;;;;;;;;;;10290638;28;20046;-47
2024/01/12 23:55:54;;;;;;;8.00;4.55;;;;;;;;;;10293371;28;20354;-45
